Sarasota, FL

3:14 AM EDT on July 04, 2015 (GMT -0400)
THE MEADOWS | | Change Station
CLOSE
Current Station
Personal Weather Station
Location: Sarasota, FL
Elevation: 39 ft
Nearby Weather Stations

Elev 39 ft 27.36 °N, 82.47 °W | Updated 7 minutes ago

Partly Cloudy
Partly Cloudy
75.1 °F
Feels Like 75 °F
N
0.0
Wind Variable Wind from SE
Gusts 1.0 mph

Today
High -- | Low -- °F
--% Chance of Precip.
Yesterday
High -- | Low -- °F
Precip. -- in
6:39 AM 8:28 PM
Waning Gibbous, 94% visible
Pressure 30.07 in
Visibility 10.0 miles
Clouds Clear
Heat Index 75 °F
Dew Point 71 °F
Humidity 87%
Rainfall 0.00 in
Snow Depth Not available.
UV 0 out of 12
Pollen 3.70 out of 12
Air Quality Not available.
Flu Activity Not available.
METAR KSRQ 040653Z AUTO 00000KT 10SM CLR 23/21 A3007 RMK AO2 SLP181 T02330206

More Conditions Fewer Conditions

Pressure 30.07 in
Visibility 10.0 miles
Clouds Clear
Heat Index 75 °F
Dew Point 71 °F
Humidity 87%
Rainfall 0.00 in
Snow Depth Not available.
UV 0 out of 12
Pollen 3.70 out of 12
Air Quality Not available.
Flu Activity Not available.
METAR KSRQ 040653Z AUTO 00000KT 10SM CLR 23/21 A3007 RMK AO2 SLP181 T02330206

More Conditions Fewer Conditions

10-Day Weather Forecast

×

Almanac

Astronomy

Jul. 04, 2015 Rise Set
Actual Time
Civil Twilight
Nautical Twilight
Astronomical Twilight
Moon
Length of Visible Light
Length of Day
Tomorrow will be .
, % of the Moon is Illuminated

Today's Extremes

State Highs State Lows

Community

WunderPhotos

Upload Photos

1,834,926 photos uploaded!

WunderBlogs® & News

Nearby

Air Quality

  Air Quality AQ Index Pollutant
Not available.

Snow Depth

Station Depth Elevation

Earthquake Activity

City Distance Mag. Time & Date
Minimum magnitude displayed is 2.5.

Coastal Water Temperatures

Place Temperature

Stations

Nearby Weather Stations

Station Location Temp. Windchill Dew Point Humidity Wind Precip. Elev Updated Type